Time;durP1;ratioP1;P1;durP2;ratioP2;P2;SDS_P1;SDS_P2;PMS_P1;PMS_P2;Temp;Humidity;BMP_temperature;BMP_pressure;BME280_temperature;BME280_humidity;BME280_pressure;Samples;Min_cycle;Max_cycle;Signal;HPM_P1;HPM_P2
2022/09/03 00:00:25;;;;;;;4.28;3.67;;;14.10;99.90;;;;;;5050427;28;20788;-57
2022/09/03 00:03:12;;;;;;;3.63;3.33;;;14.00;99.90;;;;;;5035672;28;20047;-53
2022/09/03 00:05:54;;;;;;;4.10;3.72;;;14.00;99.90;;;;;;5017720;28;20686;-56
2022/09/03 00:08:35;;;;;;;5.00;3.67;;;14.00;99.90;;;;;;5034481;28;20041;-56
2022/09/03 00:11:22;;;;;;;4.38;3.70;;;13.90;99.90;;;;;;5033362;28;20049;-57
2022/09/03 00:13:58;;;;;;;4.55;3.90;;;13.90;99.90;;;;;;5033879;28;20051;-56
2022/09/03 00:16:29;;;;;;;;;;;13.90;99.90;;;;;;5035241;28;20041;-55
2022/09/03 00:19:03;;;;;;;8.85;4.28;;;13.90;99.90;;;;;;5035236;28;19925;-56
2022/09/03 00:21:38;;;;;;;4.13;3.72;;;13.90;99.90;;;;;;5027421;28;20037;-56
2022/09/03 00:24:12;;;;;;;5.38;3.47;;;13.90;99.90;;;;;;5032486;28;20060;-55
2022/09/03 00:26:48;;;;;;;4.45;3.60;;;13.90;99.90;;;;;;5033658;28;20061;-55
2022/09/03 00:29:24;;;;;;;4.75;3.65;;;13.90;99.90;;;;;;5033122;28;20677;-56
2022/09/03 00:32:06;;;;;;;5.38;3.70;;;13.90;99.90;;;;;;5035653;28;20048;-55
2022/09/03 00:34:40;;;;;;;3.53;3.20;;;13.90;99.90;;;;;;5049296;28;20586;-56
2022/09/03 00:37:09;;;;;;;8.90;4.40;;;13.90;99.90;;;;;;5033893;28;20052;-55
2022/09/03 00:39:42;;;;;;;4.88;3.80;;;13.90;99.90;;;;;;5034581;28;20646;-56
2022/09/03 00:42:15;;;;;;;4.93;4.43;;;13.90;99.90;;;;;;5049479;28;20134;-54
2022/09/03 00:45:08;;;;;;;5.50;3.90;;;13.90;99.90;;;;;;5033365;28;20044;-56
2022/09/03 00:48:07;;;;;;;3.75;3.40;;;13.90;99.90;;;;;;5017292;28;20099;-56
2022/09/03 00:50:59;;;;;;;6.10;4.07;;;13.90;99.90;;;;;;5032636;28;20063;-55
2022/09/03 00:53:39;;;;;;;4.03;3.63;;;14.00;99.90;;;;;;5034025;28;20053;-56
2022/09/03 00:56:25;;;;;;;3.85;3.55;;;14.00;99.90;;;;;;5034178;28;20287;-57
2022/09/03 00:59:44;;;;;;;3.50;3.20;;;14.00;99.90;;;;;;5035055;28;20079;-58
2022/09/03 01:02:27;;;;;;;6.53;3.85;;;13.90;99.90;;;;;;5025688;28;20057;-54
2022/09/03 01:05:08;;;;;;;4.90;4.10;;;13.90;99.90;;;;;;5032567;28;20064;-58
2022/09/03 01:07:58;;;;;;;4.78;3.85;;;13.90;99.90;;;;;;5034475;28;20040;-56
2022/09/03 01:10:38;;;;;;;4.75;4.32;;;13.80;99.90;;;;;;5017464;28;20029;-56
2022/09/03 01:13:23;;;;;;;5.35;4.28;;;13.80;99.90;;;;;;5032658;28;20137;-55
2022/09/03 01:16:12;;;;;;;5.68;3.88;;;13.80;99.90;;;;;;5035002;28;20045;-56
2022/09/03 01:19:07;;;;;;;3.67;3.33;;;13.80;99.90;;;;;;5032430;28;20052;-58
2022/09/03 01:21:58;;;;;;;3.58;3.15;;;13.80;99.90;;;;;;5032924;28;20774;-56
2022/09/03 01:24:44;;;;;;;4.00;3.30;;;13.80;99.90;;;;;;5010732;28;20055;-57
2022/09/03 01:27:37;;;;;;;6.65;4.20;;;13.80;99.90;;;;;;5012317;28;20037;-56
2022/09/03 01:30:07;;;;;;;7.03;4.82;;;13.90;99.90;;;;;;5028557;28;20482;-56
2022/09/03 01:32:57;;;;;;;5.78;5.00;;;14.10;99.90;;;;;;5049191;28;20048;-57
2022/09/03 01:35:45;;;;;;;6.47;5.78;;;14.20;99.90;;;;;;5048788;28;20044;-56
2022/09/03 01:38:34;;;;;;;6.25;5.65;;;14.30;99.90;;;;;;5033995;28;20045;-56
2022/09/03 01:44:38;;;;;;;6.25;4.65;;;14.40;99.90;;;;;;5032635;28;20130;-55
2022/09/03 01:47:28;;;;;;;5.30;4.38;;;14.50;99.90;;;;;;5033989;28;20037;-57
2022/09/03 01:50:09;;;;;;;4.38;3.97;;;14.50;99.90;;;;;;5032928;28;20037;-56
2022/09/03 01:52:43;;;;;;;4.63;4.00;;;14.50;99.90;;;;;;5031864;28;20123;-56
2022/09/03 01:55:31;;;;;;;5.00;4.05;;;14.50;99.90;;;;;;5033555;28;20114;-57
2022/09/03 01:58:14;;;;;;;4.37;3.77;;;14.50;99.90;;;;;;5033874;28;20509;-57
2022/09/03 02:00:47;;;;;;;5.95;3.50;;;14.50;99.90;;;;;;5033629;28;20132;-56
2022/09/03 02:03:16;;;;;;;4.78;3.45;;;14.50;99.90;;;;;;5030911;28;20037;-55
2022/09/03 02:05:46;;;;;;;8.38;3.42;;;14.50;99.90;;;;;;5034124;28;20040;-56
2022/09/03 02:08:14;;;;;;;3.20;2.80;;;14.50;99.90;;;;;;5032005;28;20041;-54
2022/09/03 02:11:00;;;;;;;3.80;3.40;;;14.50;99.90;;;;;;5032146;28;20060;-56
2022/09/03 02:13:41;;;;;;;3.17;2.92;;;14.50;99.90;;;;;;5031428;28;20041;-54
2022/09/03 02:16:23;;;;;;;6.90;3.58;;;14.60;99.90;;;;;;5012902;28;20084;-57
2022/09/03 02:18:57;;;;;;;5.57;3.15;;;14.60;99.90;;;;;;5014039;28;20578;-55
2022/09/03 02:21:29;;;;;;;12.07;3.95;;;14.60;99.90;;;;;;5012290;28;20108;-55
2022/09/03 02:23:57;;;;;;;5.57;3.25;;;14.60;99.90;;;;;;5012093;28;20049;-55
2022/09/03 02:26:25;;;;;;;7.18;4.40;;;14.60;99.90;;;;;;5031141;28;20134;-55
2022/09/03 02:28:57;;;;;;;6.72;4.88;;;14.60;99.90;;;;;;5033548;28;20064;-56
2022/09/03 02:31:26;;;;;;;7.28;5.20;;;14.50;99.90;;;;;;5049129;28;20033;-54
2022/09/03 02:33:56;;;;;;;7.40;5.68;;;14.50;99.90;;;;;;5033613;28;20041;-55
2022/09/03 02:36:31;;;;;;;7.50;5.35;;;14.40;99.90;;;;;;5015791;28;20060;-54
2022/09/03 02:38:59;;;;;;;7.53;6.20;;;14.40;99.90;;;;;;5033098;28;20044;-54
2022/09/03 02:41:27;;;;;;;8.07;5.53;;;14.50;99.90;;;;;;5051739;28;20049;-54
2022/09/03 02:44:06;;;;;;;7.97;6.00;;;14.50;99.90;;;;;;5052998;28;20620;-53
2022/09/03 02:46:54;;;;;;;6.13;5.15;;;14.40;99.90;;;;;;5036745;28;20064;-55
2022/09/03 02:49:23;;;;;;;6.00;5.18;;;14.50;99.90;;;;;;5037288;28;20029;-55
2022/09/03 02:51:50;;;;;;;5.80;5.22;;;14.50;99.90;;;;;;5036994;28;20503;-55
2022/09/03 02:54:19;;;;;;;8.52;6.25;;;14.50;99.90;;;;;;5036383;28;20052;-55
2022/09/03 02:56:48;;;;;;;8.82;5.13;;;14.50;99.90;;;;;;5051499;28;20064;-55
2022/09/03 02:59:16;;;;;;;6.85;4.93;;;14.50;99.90;;;;;;5031552;28;20046;-56
2022/09/03 03:01:44;;;;;;;11.05;7.63;;;14.50;99.90;;;;;;5014264;28;20814;-55
2022/09/03 03:04:13;;;;;;;8.02;5.05;;;14.50;99.90;;;;;;5015581;28;20476;-55
2022/09/03 03:06:41;;;;;;;6.88;5.78;;;14.50;99.90;;;;;;5014673;28;20056;-56
2022/09/03 03:09:14;;;;;;;10.35;6.00;;;14.50;99.90;;;;;;5013668;28;20253;-56
2022/09/03 03:11:42;;;;;;;7.72;5.60;;;14.40;99.90;;;;;;5029247;28;20072;-57
2022/09/03 03:14:10;;;;;;;7.22;6.07;;;14.40;99.90;;;;;;5045882;28;20510;-55
2022/09/03 03:16:38;;;;;;;8.32;5.68;;;14.30;99.90;;;;;;5030555;28;20069;-55
2022/09/03 03:19:07;;;;;;;9.77;6.13;;;14.30;99.90;;;;;;4997656;28;20506;-55
2022/09/03 03:21:35;;;;;;;9.88;6.65;;;14.30;99.90;;;;;;4998265;28;20192;-56
2022/09/03 03:24:03;;;;;;;8.93;7.15;;;14.30;99.90;;;;;;4997645;28;20404;-55
2022/09/03 03:26:33;;;;;;;8.15;7.15;;;14.20;99.90;;;;;;5023470;28;20049;-55
2022/09/03 03:29:05;;;;;;;7.75;6.70;;;14.20;99.90;;;;;;5036305;28;20054;-56
2022/09/03 03:31:33;;;;;;;8.88;7.03;;;14.20;99.90;;;;;;5035412;28;20060;-56
2022/09/03 03:34:02;;;;;;;9.82;7.20;;;14.20;99.90;;;;;;5035923;28;20045;-56
2022/09/03 03:36:32;;;;;;;8.57;7.60;;;14.20;99.90;;;;;;5050943;28;20094;-56
2022/09/03 03:39:01;;;;;;;9.18;6.28;;;14.20;99.90;;;;;;5036353;28;20047;-57
2022/09/03 03:41:32;;;;;;;7.60;6.10;;;14.20;99.90;;;;;;5035435;28;20043;-55
2022/09/03 03:44:03;;;;;;;7.45;6.68;;;14.20;99.90;;;;;;5051095;28;20624;-55
2022/09/03 03:46:37;;;;;;;13.10;6.38;;;14.20;99.90;;;;;;5049836;28;20040;-56
2022/09/03 03:49:06;;;;;;;10.68;7.07;;;14.20;99.90;;;;;;5035911;28;20675;-55
2022/09/03 03:51:36;;;;;;;9.82;5.88;;;14.20;99.90;;;;;;5034818;28;20075;-56
2022/09/03 03:54:05;;;;;;;8.43;6.35;;;14.20;99.90;;;;;;5050668;28;20758;-56
2022/09/03 03:56:34;;;;;;;8.32;5.72;;;14.20;99.90;;;;;;5035156;28;20052;-55
2022/09/03 03:59:03;;;;;;;8.63;6.10;;;14.20;99.90;;;;;;5050310;28;20048;-55
2022/09/03 04:01:31;;;;;;;14.77;6.10;;;14.20;99.90;;;;;;5017336;28;20047;-54
2022/09/03 04:03:59;;;;;;;7.97;6.25;;;14.20;99.90;;;;;;5034927;28;20037;-55
2022/09/03 04:06:28;;;;;;;6.47;5.60;;;14.10;99.90;;;;;;5017132;28;20068;-55
2022/09/03 04:08:56;;;;;;;5.60;4.97;;;14.20;99.90;;;;;;5033134;28;20049;-56
2022/09/03 04:11:28;;;;;;;7.18;5.15;;;14.20;99.90;;;;;;5035865;28;20044;-56
2022/09/03 04:13:57;;;;;;;5.68;4.97;;;14.20;99.90;;;;;;5033538;28;20136;-55
2022/09/03 04:16:26;;;;;;;5.15;4.65;;;14.20;99.90;;;;;;5017905;28;20098;-55
2022/09/03 04:18:56;;;;;;;5.60;5.00;;;14.20;99.90;;;;;;5018097;28;20300;-56
2022/09/03 04:21:29;;;;;;;6.38;4.80;;;14.30;99.90;;;;;;5034406;28;20900;-55
2022/09/03 04:23:58;;;;;;;9.50;4.65;;;14.30;99.90;;;;;;5035024;28;20040;-55
2022/09/03 04:26:31;;;;;;;5.28;4.38;;;14.30;99.90;;;;;;5017514;28;20046;-56
2022/09/03 04:29:03;;;;;;;6.07;4.50;;;14.30;99.90;;;;;;5019044;28;20044;-55
2022/09/03 04:31:33;;;;;;;13.35;5.25;;;14.30;99.90;;;;;;5016635;28;20164;-56
2022/09/03 04:34:04;;;;;;;5.88;4.30;;;14.20;99.90;;;;;;5033586;28;20045;-57
2022/09/03 04:36:33;;;;;;;6.00;5.28;;;14.20;99.90;;;;;;5048904;28;20057;-56
2022/09/03 04:39:02;;;;;;;11.15;4.53;;;14.20;99.90;;;;;;5034828;28;20052;-56
2022/09/03 04:41:33;;;;;;;5.07;4.57;;;14.20;99.90;;;;;;5033632;28;20824;-56
2022/09/03 04:44:02;;;;;;;5.25;4.72;;;14.30;99.90;;;;;;5032180;28;20044;-56
2022/09/03 04:46:34;;;;;;;14.23;5.25;;;14.20;99.90;;;;;;5033079;28;20036;-55
2022/09/03 04:49:03;;;;;;;4.95;4.40;;;14.30;99.90;;;;;;5049445;28;20129;-55
2022/09/03 04:51:31;;;;;;;6.30;4.43;;;14.30;99.90;;;;;;5033552;28;20183;-53
2022/09/03 04:54:02;;;;;;;9.32;4.53;;;14.30;99.90;;;;;;5032395;28;20048;-55
2022/09/03 04:56:33;;;;;;;7.90;4.88;;;14.30;99.90;;;;;;5033518;28;20817;-56
2022/09/03 04:59:05;;;;;;;5.35;4.85;;;14.30;99.90;;;;;;5032694;28;20710;-54
2022/09/03 05:01:37;;;;;;;3.83;3.45;;;14.30;99.90;;;;;;5016345;28;20087;-54
2022/09/03 05:04:07;;;;;;;4.45;3.83;;;14.30;99.90;;;;;;5031605;28;20053;-55
2022/09/03 05:06:37;;;;;;;4.43;3.92;;;14.40;99.90;;;;;;5049435;28;20060;-54
2022/09/03 05:09:06;;;;;;;4.72;4.10;;;14.40;99.90;;;;;;5034669;28;20051;-54
2022/09/03 05:11:36;;;;;;;3.83;3.53;;;14.40;99.90;;;;;;5034124;28;20133;-54
2022/09/03 05:14:10;;;;;;;7.70;4.85;;;14.50;99.90;;;;;;5034447;28;20055;-56
2022/09/03 05:16:39;;;;;;;4.47;4.07;;;14.50;99.90;;;;;;5033752;28;20965;-55
2022/09/03 05:19:09;;;;;;;7.40;5.10;;;14.50;99.90;;;;;;5017298;28;20931;-55
2022/09/03 05:21:38;;;;;;;5.53;4.20;;;14.60;99.90;;;;;;5048563;28;20080;-56
2022/09/03 05:24:06;;;;;;;5.53;4.28;;;14.60;99.90;;;;;;5016416;28;20462;-55
2022/09/03 05:26:38;;;;;;;5.05;4.25;;;14.60;99.90;;;;;;5024397;28;20048;-54
2022/09/03 05:29:07;;;;;;;4.78;3.70;;;14.60;99.90;;;;;;5000099;28;20041;-55
2022/09/03 05:31:37;;;;;;;4.82;3.90;;;14.70;99.90;;;;;;5048400;28;20124;-55
2022/09/03 05:34:08;;;;;;;4.35;3.85;;;14.70;99.90;;;;;;5014741;28;20505;-56
2022/09/03 05:36:45;;;;;;;8.70;4.50;;;14.70;99.90;;;;;;5047327;28;20068;-56
2022/09/03 05:39:15;;;;;;;4.60;4.20;;;14.80;99.90;;;;;;5033277;28;20580;-55
2022/09/03 05:41:43;;;;;;;4.00;3.70;;;14.80;99.90;;;;;;5031256;28;20397;-56
2022/09/03 05:44:11;;;;;;;4.85;4.00;;;14.80;99.90;;;;;;5031277;28;20045;-56
2022/09/03 05:46:41;;;;;;;4.55;4.15;;;14.90;99.90;;;;;;5032980;28;20072;-56
2022/09/03 05:49:10;;;;;;;5.40;4.22;;;14.90;99.90;;;;;;5015384;28;20905;-57
2022/09/03 05:51:38;;;;;;;5.82;4.35;;;15.00;99.90;;;;;;5048286;28;20041;-57
2022/09/03 05:54:08;;;;;;;4.28;3.88;;;15.10;99.90;;;;;;5031302;28;20041;-56
2022/09/03 05:56:38;;;;;;;5.82;4.53;;;15.10;99.90;;;;;;5048594;28;20116;-56
2022/09/03 05:59:08;;;;;;;5.88;4.45;;;15.20;99.90;;;;;;5049388;28;20100;-55
2022/09/03 06:01:42;;;;;;;4.43;4.03;;;15.20;99.90;;;;;;5033420;28;20045;-55
2022/09/03 06:04:19;;;;;;;4.90;4.40;;;15.30;99.90;;;;;;5033508;28;20140;-53
2022/09/03 06:06:51;;;;;;;7.15;5.25;;;15.40;99.90;;;;;;4999803;28;20052;-55
2022/09/03 06:09:21;;;;;;;8.98;4.82;;;15.50;99.90;;;;;;5032731;28;20726;-54
2022/09/03 06:11:50;;;;;;;6.05;5.05;;;15.50;99.90;;;;;;5031697;28;20048;-54
2022/09/03 06:14:20;;;;;;;6.97;4.38;;;15.70;99.90;;;;;;5031382;28;20048;-53
2022/09/03 06:16:51;;;;;;;5.63;5.13;;;15.80;99.90;;;;;;5018004;28;20041;-54
2022/09/03 06:19:20;;;;;;;4.68;4.28;;;15.80;99.90;;;;;;5033046;28;20053;-55
2022/09/03 06:21:49;;;;;;;5.28;4.78;;;15.90;99.90;;;;;;5015740;28;20052;-55
2022/09/03 06:24:22;;;;;;;5.97;4.97;;;16.00;99.90;;;;;;5015996;28;20049;-55
2022/09/03 06:26:58;;;;;;;7.38;4.55;;;16.10;99.90;;;;;;5017304;28;20055;-54
2022/09/03 06:29:27;;;;;;;4.90;4.20;;;16.20;99.90;;;;;;5027996;28;20045;-52
2022/09/03 06:31:57;;;;;;;5.88;4.57;;;16.20;99.90;;;;;;5018029;28;20030;-54
2022/09/03 06:34:26;;;;;;;5.32;4.80;;;16.30;99.90;;;;;;5032083;28;20038;-54
2022/09/03 06:36:54;;;;;;;4.47;4.07;;;16.40;99.90;;;;;;5017279;28;20056;-54
2022/09/03 06:39:24;;;;;;;4.72;3.97;;;16.60;99.90;;;;;;5016449;28;20057;-57
2022/09/03 06:41:53;;;;;;;4.55;4.10;;;16.70;99.90;;;;;;5017485;28;20165;-54
2022/09/03 06:44:35;;;;;;;5.57;4.13;;;16.80;99.90;;;;;;5017496;28;20049;-54
2022/09/03 06:47:03;;;;;;;4.60;4.20;;;16.80;99.90;;;;;;5000523;28;20049;-53
2022/09/03 06:49:32;;;;;;;5.97;4.38;;;16.90;99.90;;;;;;5000176;28;20095;-55
2022/09/03 06:52:01;;;;;;;6.00;3.47;;;16.90;99.90;;;;;;5017094;28;20033;-55
2022/09/03 06:54:29;;;;;;;5.63;4.43;;;16.90;99.90;;;;;;5006990;28;20047;-54
2022/09/03 06:56:57;;;;;;;4.75;3.97;;;16.90;99.90;;;;;;4974404;28;20052;-55
2022/09/03 06:59:25;;;;;;;6.57;3.90;;;16.80;99.90;;;;;;4976701;28;20144;-55
2022/09/03 07:01:52;;;;;;;5.13;3.35;;;16.70;99.90;;;;;;5006712;28;20130;-54
2022/09/03 07:04:23;;;;;;;3.65;3.35;;;16.70;99.90;;;;;;4992259;28;20336;-53
2022/09/03 07:06:51;;;;;;;5.93;3.65;;;16.70;99.90;;;;;;4989574;28;20132;-54
2022/09/03 07:09:18;;;;;;;3.72;3.38;;;16.70;99.90;;;;;;4994386;28;20041;-53
2022/09/03 07:11:46;;;;;;;3.65;3.13;;;16.70;99.90;;;;;;4991430;28;20067;-53
2022/09/03 07:14:19;;;;;;;3.42;3.08;;;16.80;99.90;;;;;;4989729;28;20872;-54
2022/09/03 07:16:49;;;;;;;6.13;3.33;;;16.90;99.90;;;;;;4990350;28;20037;-54
2022/09/03 07:19:16;;;;;;;3.78;3.20;;;17.00;99.90;;;;;;4990492;28;20037;-54
2022/09/03 07:21:44;;;;;;;4.28;3.10;;;17.00;99.90;;;;;;4987078;28;20052;-54
2022/09/03 07:24:17;;;;;;;4.40;2.75;;;16.90;99.90;;;;;;5001972;28;20048;-52
2022/09/03 07:26:47;;;;;;;3.38;2.90;;;16.80;99.90;;;;;;4991870;28;20040;-53
2022/09/03 07:29:18;;;;;;;3.92;3.35;;;16.80;99.90;;;;;;4978502;28;20127;-54
2022/09/03 07:31:50;;;;;;;4.35;3.10;;;16.70;99.90;;;;;;4971722;28;20399;-52
2022/09/03 07:34:19;;;;;;;5.05;3.00;;;16.70;99.90;;;;;;5004024;28;20045;-53
2022/09/03 07:36:49;;;;;;;3.45;3.15;;;16.60;99.90;;;;;;4987528;28;20041;-55
2022/09/03 07:39:18;;;;;;;3.67;3.00;;;16.70;99.90;;;;;;5006769;28;20029;-56
2022/09/03 07:41:46;;;;;;;3.20;2.92;;;17.00;99.90;;;;;;4990847;28;20037;-54
2022/09/03 07:44:18;;;;;;;6.35;4.35;;;17.70;99.90;;;;;;4989932;28;20041;-54
2022/09/03 07:46:49;;;;;;;6.43;3.50;;;18.40;99.90;;;;;;4970471;28;20678;-55
2022/09/03 07:49:20;;;;;;;6.43;4.40;;;18.90;99.90;;;;;;5004245;28;20041;-54
2022/09/03 07:51:51;;;;;;;3.90;3.55;;;19.40;99.90;;;;;;4972765;28;20049;-54
2022/09/03 07:54:21;;;;;;;5.97;3.05;;;20.10;99.90;;;;;;5001166;28;20336;-56
2022/09/03 07:56:48;;;;;;;4.50;3.17;;;20.60;99.90;;;;;;5002860;28;20049;-56
2022/09/03 07:59:15;;;;;;;6.22;3.47;;;21.10;99.90;;;;;;4991847;28;20033;-55
2022/09/03 08:01:43;;;;;;;5.43;3.17;;;21.60;99.90;;;;;;4992321;28;20743;-55
2022/09/03 08:04:10;;;;;;;4.05;3.60;;;22.10;99.90;;;;;;4989347;28;20037;-56
2022/09/03 08:06:38;;;;;;;4.82;3.15;;;22.50;99.90;;;;;;4992274;28;20053;-56
2022/09/03 08:09:08;;;;;;;4.47;4.07;;;22.90;99.90;;;;;;4985698;28;20577;-55
2022/09/03 08:11:40;;;;;;;4.45;3.42;;;23.30;99.90;;;;;;4988272;28;20037;-55
2022/09/03 08:14:10;;;;;;;4.47;3.30;;;23.60;99.90;;;;;;4981044;28;20405;-54
2022/09/03 08:16:41;;;;;;;10.23;3.50;;;23.70;99.90;;;;;;4968663;28;20114;-57
2022/09/03 08:19:10;;;;;;;4.13;3.22;;;24.00;99.90;;;;;;4967291;28;20062;-62
2022/09/03 08:21:40;;;;;;;4.57;3.00;;;24.10;99.90;;;;;;4978125;28;20870;-55
2022/09/03 08:24:10;;;;;;;4.40;2.95;;;24.40;99.90;;;;;;4985440;28;20045;-55
2022/09/03 08:26:41;;;;;;;3.08;2.80;;;24.50;99.90;;;;;;4966984;28;20059;-56
2022/09/03 08:29:16;;;;;;;3.03;2.63;;;24.60;99.90;;;;;;4973854;28;20282;-56
2022/09/03 08:31:44;;;;;;;3.25;2.78;;;24.60;99.90;;;;;;4985590;28;20542;-55
2022/09/03 08:34:13;;;;;;;4.40;3.00;;;24.70;99.90;;;;;;4988009;28;20033;-56
2022/09/03 08:36:41;;;;;;;2.97;2.50;;;24.70;99.90;;;;;;4988236;28;20441;-55
2022/09/03 08:39:10;;;;;;;4.32;2.80;;;24.70;99.90;;;;;;4990030;28;20540;-55
2022/09/03 08:41:49;;;;;;;2.53;2.33;;;24.80;99.90;;;;;;4989522;28;20041;-57
2022/09/03 08:44:31;;;;;;;2.72;2.20;;;24.90;99.90;;;;;;4989841;28;20044;-57
2022/09/03 08:47:01;;;;;;;2.25;2.05;;;25.00;99.90;;;;;;4988620;28;20794;-54
2022/09/03 08:49:45;;;;;;;2.60;2.28;;;25.20;99.90;;;;;;4987877;28;20052;-55
2022/09/03 08:52:31;;;;;;;2.35;2.15;;;25.40;99.90;;;;;;4991249;28;20037;-55
2022/09/03 08:55:25;;;;;;;2.30;2.20;;;25.50;99.90;;;;;;4987470;28;20558;-56
2022/09/03 08:58:15;;;;;;;1.92;1.80;;;25.70;99.90;;;;;;4990963;28;20328;-56
2022/09/03 09:01:02;;;;;;;3.03;2.10;;;25.70;99.90;;;;;;4965113;28;20570;-55
2022/09/03 09:03:48;;;;;;;2.90;2.22;;;25.60;99.90;;;;;;4969281;28;20120;-55
2022/09/03 09:06:40;;;;;;;2.42;2.15;;;25.40;99.90;;;;;;4978260;28;20695;-51
2022/09/03 09:09:11;;;;;;;2.45;2.17;;;25.00;99.90;;;;;;5003787;28;20041;-55
2022/09/03 09:12:10;;;;;;;6.38;2.25;;;24.80;99.90;;;;;;4987776;28;20102;-54
2022/09/03 09:15:04;;;;;;;2.55;2.08;;;24.60;99.90;;;;;;4964266;28;20160;-55
2022/09/03 09:17:53;;;;;;;2.20;1.85;;;24.40;99.90;;;;;;4981015;28;20550;-55
2022/09/03 09:20:47;;;;;;;2.65;1.75;;;24.30;99.90;;;;;;4967308;28;20108;-55
2022/09/03 09:23:28;;;;;;;4.97;2.30;;;24.30;99.90;;;;;;4967214;28;20041;-54
2022/09/03 09:26:00;;;;;;;4.20;2.50;;;24.20;99.90;;;;;;4967641;28;20037;-54
2022/09/03 09:28:34;;;;;;;2.33;1.73;;;24.10;99.90;;;;;;4963794;28;20045;-53
2022/09/03 09:31:04;;;;;;;3.17;2.08;;;24.20;99.90;;;;;;4977833;28;20036;-55
2022/09/03 09:33:31;;;;;;;3.03;1.55;;;24.50;99.90;;;;;;4982134;28;20130;-53
2022/09/03 09:36:04;;;;;;;5.60;1.88;;;24.60;97.90;;;;;;4975329;28;20033;-52
2022/09/03 09:38:37;;;;;;;2.05;1.60;;;25.00;98.00;;;;;;4976385;28;20045;-55
2022/09/03 09:41:23;;;;;;;2.85;2.05;;;25.30;98.20;;;;;;4975032;28;20571;-53
2022/09/03 09:44:01;;;;;;;1.95;1.60;;;25.70;92.60;;;;;;4964687;28;21079;-52
2022/09/03 09:46:38;;;;;;;1.55;1.42;;;26.00;91.40;;;;;;4963801;28;20053;-54
2022/09/03 09:49:34;;;;;;;6.57;1.67;;;26.20;87.10;;;;;;4971585;28;20041;-53
2022/09/03 09:52:07;;;;;;;2.17;1.60;;;26.20;76.50;;;;;;4971672;28;20057;-54
2022/09/03 09:54:34;;;;;;;1.42;1.27;;;26.10;75.30;;;;;;4971248;28;20144;-54
2022/09/03 09:57:13;;;;;;;1.35;1.25;;;26.10;79.20;;;;;;4970758;28;20038;-55
2022/09/03 09:59:40;;;;;;;2.42;1.50;;;26.20;71.80;;;;;;4954837;28;20250;-54
2022/09/03 10:02:14;;;;;;;1.23;1.13;;;26.30;74.00;;;;;;4989109;28;20668;-55
2022/09/03 10:04:49;;;;;;;2.47;1.33;;;26.30;68.00;;;;;;4983956;28;20153;-54
2022/09/03 10:07:26;;;;;;;1.00;1.00;;;26.30;64.10;;;;;;4979472;28;20506;-54
2022/09/03 10:10:19;;;;;;;1.88;0.98;;;26.20;59.40;;;;;;5004936;28;20711;-53
2022/09/03 10:12:57;;;;;;;2.08;1.85;;;26.10;63.10;;;;;;4983025;28;20401;-52
2022/09/03 10:15:35;;;;;;;3.40;1.58;;;25.80;72.60;;;;;;4978523;28;20072;-54
2022/09/03 10:18:15;;;;;;;1.92;1.58;;;25.70;72.00;;;;;;4969355;28;20811;-54
2022/09/03 10:20:43;;;;;;;2.75;1.70;;;25.30;77.30;;;;;;4984553;28;20590;-54
2022/09/03 10:23:17;;;;;;;2.20;1.90;;;25.00;87.10;;;;;;4984331;28;20176;-55
2022/09/03 10:26:06;;;;;;;2.17;1.98;;;24.80;93.20;;;;;;4970191;28;20684;-55
2022/09/03 10:28:42;;;;;;;3.25;2.10;;;24.40;94.40;;;;;;4953388;28;20068;-54
2022/09/03 10:31:35;;;;;;;1.52;1.42;;;24.00;98.70;;;;;;5001069;28;20635;-54
2022/09/03 10:34:21;;;;;;;2.55;2.35;;;23.60;99.90;;;;;;4968469;28;20374;-53
2022/09/03 10:37:05;;;;;;;2.30;2.08;;;23.30;99.90;;;;;;4970578;28;20900;-55
2022/09/03 10:39:39;;;;;;;3.60;2.97;;;23.00;99.90;;;;;;4969529;28;20414;-55
2022/09/03 10:42:34;;;;;;;3.97;3.33;;;22.70;99.90;;;;;;4968793;28;20795;-54
2022/09/03 10:45:29;;;;;;;2.70;2.50;;;22.40;99.90;;;;;;4973156;28;20144;-54
2022/09/03 10:48:06;;;;;;;3.25;2.53;;;22.10;99.90;;;;;;4972147;28;20063;-55
2022/09/03 10:51:11;;;;;;;6.25;2.60;;;21.80;99.90;;;;;;4970680;28;20056;-54
2022/09/03 10:54:09;;;;;;;6.07;2.72;;;21.50;99.90;;;;;;4968165;28;20064;-53
2022/09/03 10:56:55;;;;;;;9.20;3.40;;;21.00;99.90;;;;;;4971551;28;20559;-48
2022/09/03 10:59:32;;;;;;;10.85;4.57;;;20.50;99.90;;;;;;4975378;28;20048;-51
2022/09/03 11:02:39;;;;;;;5.22;3.60;;;19.90;99.90;;;;;;5005471;28;20044;-49
2022/09/03 11:05:12;;;;;;;5.07;3.20;;;19.20;99.90;;;;;;5003489;28;20429;-52
2022/09/03 11:07:57;;;;;;;5.18;3.20;;;18.60;99.90;;;;;;4989617;28;20217;-50
2022/09/03 11:10:33;;;;;;;3.78;3.47;;;18.10;99.90;;;;;;4990437;28;20356;-51
2022/09/03 11:13:25;;;;;;;2.28;2.05;;;17.60;99.90;;;;;;4990778;28;20052;-51
2022/09/03 11:15:58;;;;;;;3.78;2.65;;;17.30;99.90;;;;;;5003336;28;20056;-52
2022/09/03 11:18:36;;;;;;;3.13;2.60;;;17.00;99.90;;;;;;4993004;28;20044;-51
2022/09/03 11:21:10;;;;;;;6.70;2.50;;;16.80;99.90;;;;;;5003164;28;20048;-51
2022/09/03 11:23:43;;;;;;;4.60;2.17;;;16.60;99.90;;;;;;4975018;28;20823;-53
2022/09/03 11:26:14;;;;;;;2.90;2.38;;;16.40;99.90;;;;;;4970428;28;20036;-52
2022/09/03 11:28:47;;;;;;;2.67;2.10;;;16.30;99.90;;;;;;4972952;28;20048;-51
2022/09/03 11:31:25;;;;;;;4.00;2.03;;;16.20;99.90;;;;;;5004650;28;20140;-50
2022/09/03 11:34:04;;;;;;;3.90;2.38;;;16.10;99.90;;;;;;4983385;28;20128;-50
2022/09/03 11:36:37;;;;;;;4.75;2.55;;;16.00;99.90;;;;;;4970696;28;20053;-55
2022/09/03 11:39:38;;;;;;;9.90;2.60;;;16.00;99.90;;;;;;4971331;28;20204;-48
2022/09/03 11:42:22;;;;;;;6.13;2.60;;;16.00;99.90;;;;;;4969985;28;20148;-47
2022/09/03 11:44:50;;;;;;;3.92;2.55;;;15.90;99.90;;;;;;4968800;28;20041;-47
2022/09/03 11:47:23;;;;;;;2.40;2.20;;;15.90;99.90;;;;;;4971158;28;20107;-48
2022/09/03 11:49:52;;;;;;;2.55;2.20;;;15.90;99.90;;;;;;4986069;28;20144;-48
2022/09/03 11:52:39;;;;;;;3.85;2.50;;;15.90;99.90;;;;;;4973696;28;20115;-47
2022/09/03 11:55:07;;;;;;;4.80;2.65;;;15.90;99.90;;;;;;4986635;28;20889;-48
2022/09/03 11:57:44;;;;;;;3.63;2.25;;;15.90;99.90;;;;;;4992819;28;20040;-51
2022/09/03 12:00:19;;;;;;;3.72;2.47;;;16.00;99.90;;;;;;4985734;28;20042;-51
2022/09/03 12:02:52;;;;;;;3.92;2.65;;;16.00;99.90;;;;;;4987157;28;20053;-50
2022/09/03 12:05:27;;;;;;;1.80;1.70;;;16.00;99.90;;;;;;5001807;28;20221;-50
2022/09/03 12:08:01;;;;;;;3.85;2.85;;;15.90;99.90;;;;;;4988740;28;20172;-50
2022/09/03 12:10:57;;;;;;;2.80;2.30;;;15.90;99.90;;;;;;4981343;28;20045;-52
2022/09/03 12:13:40;;;;;;;4.38;2.35;;;16.00;99.90;;;;;;4981052;28;20045;-52
2022/09/03 12:16:35;;;;;;;4.53;2.30;;;16.00;99.90;;;;;;4987914;28;20037;-51
2022/09/03 12:19:14;;;;;;;2.00;1.77;;;16.00;99.90;;;;;;4990042;28;20036;-52
2022/09/03 12:21:49;;;;;;;4.10;2.53;;;16.20;99.90;;;;;;4984903;28;20790;-50
2022/09/03 12:24:18;;;;;;;3.15;2.20;;;16.20;99.90;;;;;;4983437;28;20263;-50
2022/09/03 12:26:46;;;;;;;2.10;1.92;;;16.30;99.90;;;;;;4968307;28;20351;-48
2022/09/03 12:29:24;;;;;;;7.10;1.80;;;16.30;99.90;;;;;;4986619;28;20202;-51
2022/09/03 12:31:55;;;;;;;5.03;1.90;;;16.30;99.90;;;;;;4991492;28;20213;-50
2022/09/03 12:34:25;;;;;;;2.63;2.40;;;16.30;99.90;;;;;;4974942;28;20048;-46
2022/09/03 12:36:53;;;;;;;3.92;2.65;;;16.40;99.90;;;;;;4950518;28;20045;-46
2022/09/03 12:39:26;;;;;;;1.73;1.55;;;16.50;99.90;;;;;;4970445;28;20570;-48
2022/09/03 12:42:28;;;;;;;2.97;1.92;;;16.50;99.90;;;;;;4980532;28;20052;-56
2022/09/03 12:45:05;;;;;;;5.95;2.00;;;16.70;99.90;;;;;;5002134;28;20384;-54
2022/09/03 12:47:38;;;;;;;2.58;1.90;;;16.90;99.90;;;;;;4969363;28;20044;-49
2022/09/03 12:50:18;;;;;;;6.57;1.63;;;17.20;99.90;;;;;;4986272;28;20786;-52
2022/09/03 12:52:58;;;;;;;1.65;1.30;;;17.50;99.90;;;;;;5003535;28;20040;-49
2022/09/03 12:55:41;;;;;;;1.95;1.67;;;17.80;99.90;;;;;;5002597;28;20547;-49
2022/09/03 12:58:18;;;;;;;1.92;1.30;;;18.10;99.90;;;;;;4998200;28;20352;-51
2022/09/03 13:00:46;;;;;;;2.15;1.33;;;18.30;99.90;;;;;;4988247;28;20094;-46
2022/09/03 13:03:27;;;;;;;1.27;1.00;;;18.60;99.90;;;;;;4980814;28;20134;-48
2022/09/03 13:05:58;;;;;;;3.28;1.40;;;18.80;99.90;;;;;;4988244;28;20576;-48
2022/09/03 13:08:31;;;;;;;3.53;1.23;;;19.00;99.90;;;;;;5003321;28;20049;-50
2022/09/03 13:11:02;;;;;;;1.08;1.00;;;19.30;99.90;;;;;;4987241;28;20140;-51
2022/09/03 13:13:35;;;;;;;1.98;1.17;;;19.60;99.90;;;;;;5002169;28;20854;-47
2022/09/03 13:16:06;;;;;;;1.20;1.10;;;20.00;99.90;;;;;;4966178;28;20046;-50
2022/09/03 13:18:55;;;;;;;0.95;0.90;;;20.30;99.90;;;;;;4986076;28;20038;-50
2022/09/03 13:21:52;;;;;;;1.35;1.25;;;20.50;99.90;;;;;;4995593;28;20144;-50
2022/09/03 13:24:38;;;;;;;2.35;0.90;;;20.60;99.90;;;;;;4985529;28;20037;-50
2022/09/03 13:27:07;;;;;;;1.20;1.10;;;20.70;99.90;;;;;;4998993;28;20636;-48
2022/09/03 13:29:42;;;;;;;1.70;1.10;;;21.00;99.90;;;;;;4985447;28;20196;-50